Time;durP1;ratioP1;P1;durP2;ratioP2;P2;SDS_P1;SDS_P2;PMS_P1;PMS_P2;Temp;Humidity;BMP_temperature;BMP_pressure;BME280_temperature;BME280_humidity;BME280_pressure;Samples;Min_cycle;Max_cycle;Signal;HPM_P1;HPM_P2
2024/03/22 00:00:23;;;;;;;65.13;34.13;;;;;;;14.34;64.12;101311.06;5078910;28;20048;-82
2024/03/22 00:03:10;;;;;;;58.80;32.83;;;;;;;14.29;64.85;101316.72;5091346;28;20048;-84
2024/03/22 00:06:05;;;;;;;61.95;36.38;;;;;;;14.45;64.83;101317.84;5077637;28;20044;-83
2024/03/22 00:08:57;;;;;;;55.67;34.22;;;;;;;14.44;64.61;101315.44;5083468;28;20039;-83
2024/03/22 00:11:49;;;;;;;56.25;33.67;;;;;;;14.47;64.47;101318.34;5095384;28;20040;-83
2024/03/22 00:14:41;;;;;;;62.83;38.00;;;;;;;14.46;65.21;101308.50;5084800;28;20040;-83
2024/03/22 00:17:35;;;;;;;69.28;38.90;;;;;;;14.51;65.94;101304.78;5082998;28;20040;-83
2024/03/22 00:20:30;;;;;;;54.40;36.03;;;;;;;14.49;66.56;101312.50;5080046;28;20032;-82
2024/03/22 00:23:24;;;;;;;51.75;27.40;;;;;;;14.43;65.52;101313.81;5083845;28;20316;-83
2024/03/22 00:26:19;;;;;;;48.30;27.92;;;;;;;14.48;65.36;101322.66;5079962;28;20040;-83
2024/03/22 00:29:14;;;;;;;64.32;35.00;;;;;;;14.49;64.95;101318.78;5085501;28;20668;-83
2024/03/22 00:32:08;;;;;;;56.35;34.78;;;;;;;14.42;65.16;101313.03;5094917;28;20040;-83
2024/03/22 00:35:03;;;;;;;60.70;36.25;;;;;;;14.48;65.27;101306.22;5079813;28;20043;-83
2024/03/22 00:37:57;;;;;;;46.23;29.13;;;;;;;14.49;65.55;101315.25;5083907;28;20031;-82
2024/03/22 00:40:51;;;;;;;54.58;34.85;;;;;;;14.45;64.84;101315.09;5081485;28;20415;-82
2024/03/22 00:43:46;;;;;;;56.38;33.92;;;;;;;14.49;64.72;101312.50;5084934;28;20040;-83
2024/03/22 00:46:41;;;;;;;46.60;28.13;;;;;;;14.50;64.83;101314.94;5082336;28;20040;-82
2024/03/22 00:49:36;;;;;;;50.63;28.20;;;;;;;14.33;65.89;101308.66;5094326;28;20044;-82
2024/03/22 00:52:30;;;;;;;48.37;27.20;;;;;;;14.39;65.32;101324.63;5079441;28;20044;-82
2024/03/22 00:55:24;;;;;;;61.07;33.77;;;;;;;14.42;64.96;101323.97;5081273;28;20044;-82
2024/03/22 00:58:19;;;;;;;53.13;33.30;;;;;;;14.45;64.86;101317.03;5084489;28;20048;-83
2024/03/22 01:01:13;;;;;;;58.50;34.17;;;;;;;14.36;64.21;101318.97;5081872;28;20497;-84
2024/03/22 01:04:08;;;;;;;57.38;33.58;;;;;;;14.27;64.74;101316.25;5095862;28;20286;-82
2024/03/22 01:07:03;;;;;;;56.00;34.10;;;;;;;14.25;63.90;101320.44;5083458;28;20040;-82
2024/03/22 01:09:57;;;;;;;68.53;38.13;;;;;;;14.24;65.66;101325.09;5080343;28;20504;-81
2024/03/22 01:12:51;;;;;;;62.97;35.60;;;;;;;14.28;65.54;101328.78;5084568;28;20039;-83
2024/03/22 01:15:46;;;;;;;55.20;33.17;;;;;;;14.25;64.43;101320.44;5080755;28;20040;-84
2024/03/22 01:18:41;;;;;;;54.10;32.45;;;;;;;14.12;64.29;101331.22;5093059;28;20044;-82
2024/03/22 01:21:35;;;;;;;59.00;35.72;;;;;;;14.18;64.82;101328.31;5085182;28;20440;-83
2024/03/22 01:24:30;;;;;;;55.72;34.10;;;;;;;14.09;65.47;101320.94;5080698;28;20040;-82
2024/03/22 01:27:24;;;;;;;56.03;34.42;;;;;;;14.10;65.66;101327.22;5078482;28;20036;-84
2024/03/22 01:30:19;;;;;;;55.92;34.53;;;;;;;14.11;65.70;101320.63;5082211;28;20040;-82
2024/03/22 01:33:14;;;;;;;60.33;36.08;;;;;;;14.17;65.82;101319.31;5079356;28;20036;-81
2024/03/22 01:36:09;;;;;;;55.53;34.33;;;;;;;14.12;65.71;101320.28;5079123;28;20036;-82
2024/03/22 01:38:58;;;;;;;60.65;30.63;;;;;;;14.06;65.93;101318.06;5093368;28;20048;-81
2024/03/22 01:41:53;;;;;;;52.50;33.10;;;;;;;14.06;65.31;101320.78;5093162;28;20036;-82
2024/03/22 01:44:45;;;;;;;52.60;32.40;;;;;;;14.10;65.31;101321.75;5082584;28;20044;-82
2024/03/22 01:47:45;;;;;;;57.58;35.33;;;;;;;13.96;65.34;101313.72;5079642;28;20036;-82
2024/03/22 01:50:37;;;;;;;53.97;32.10;;;;;;;13.94;64.38;101306.97;5092742;28;20036;-81
2024/03/22 01:53:27;;;;;;;59.40;34.95;;;;;;;13.75;65.37;101315.50;5084953;28;20036;-82
2024/03/22 01:56:21;;;;;;;54.60;34.78;;;;;;;13.80;65.32;101306.34;5077982;28;20044;-82
2024/03/22 01:59:17;;;;;;;64.95;37.83;;;;;;;13.79;65.85;101302.78;5082082;28;20040;-82
2024/03/22 02:02:15;;;;;;;58.13;34.58;;;;;;;13.73;65.91;101309.53;5079650;28;20039;-82
2024/03/22 02:05:15;;;;;;;56.90;33.33;;;;;;;13.62;65.92;101305.50;5081418;28;20039;-82
2024/03/22 02:08:10;;;;;;;57.45;35.28;;;;;;;13.63;66.02;101302.47;5092893;28;20036;-82
2024/03/22 02:11:05;;;;;;;65.20;35.25;;;;;;;13.69;65.66;101295.72;5092564;28;20525;-81
2024/03/22 02:13:59;;;;;;;57.53;27.90;;;;;;;13.74;66.81;101302.16;5081362;28;20040;-81
2024/03/22 02:16:59;;;;;;;67.53;34.13;;;;;;;13.61;66.26;101315.63;5079029;28;20270;-81
2024/03/22 02:19:53;;;;;;;60.28;32.80;;;;;;;13.55;64.93;101300.53;5082234;28;20040;-82
2024/03/22 02:22:46;;;;;;;57.45;34.22;;;;;;;13.46;65.65;101307.91;5080051;28;20059;-82
2024/03/22 02:25:38;;;;;;;62.58;36.33;;;;;;;13.35;66.68;101311.28;5079850;28;20035;-82
2024/03/22 02:28:32;;;;;;;61.35;36.67;;;;;;;13.36;67.50;101310.19;5092465;28;20040;-82
2024/03/22 02:31:27;;;;;;;56.57;35.37;;;;;;;13.28;67.28;101306.28;5078795;28;20051;-82
2024/03/22 02:34:21;;;;;;;63.83;35.67;;;;;;;13.38;66.90;101308.72;5081925;28;20266;-82
2024/03/22 02:37:16;;;;;;;60.60;36.10;;;;;;;13.44;67.16;101299.25;5079775;28;20044;-80
2024/03/22 02:40:12;;;;;;;58.55;34.83;;;;;;;13.47;67.05;101315.00;5076925;28;20040;-83
2024/03/22 02:43:11;;;;;;;63.65;34.85;;;;;;;13.39;66.86;101312.25;5080549;28;20040;-82
2024/03/22 02:46:06;;;;;;;62.53;37.37;;;;;;;13.46;67.44;101305.19;5078346;28;20032;-81
2024/03/22 02:48:58;;;;;;;60.30;35.28;;;;;;;13.45;67.78;101300.88;5093045;28;20052;-80
2024/03/22 02:51:52;;;;;;;69.68;37.38;;;;;;;13.40;66.81;101300.22;5080727;28;20044;-83
2024/03/22 02:54:47;;;;;;;62.38;36.97;;;;;;;13.34;65.98;101293.28;5092240;28;20505;-83
2024/03/22 02:57:39;;;;;;;44.40;27.92;;;;;;;13.35;66.15;101294.91;5080718;28;20032;-83
2024/03/22 03:00:34;;;;;;;64.38;38.08;;;;;;;13.36;66.85;101304.72;5078448;28;20044;-84
2024/03/22 03:03:28;;;;;;;59.22;34.53;;;;;;;13.29;67.08;101302.44;5082737;28;20032;-83
2024/03/22 03:06:23;;;;;;;49.50;29.37;;;;;;;13.29;66.94;101296.97;5076909;28;20052;-82
2024/03/22 03:09:17;;;;;;;70.43;34.58;;;;;;;13.31;66.72;101300.19;5092016;28;20044;-83
2024/03/22 03:12:12;;;;;;;66.18;35.40;;;;;;;13.31;67.12;101288.47;5083265;28;20032;-83
2024/03/22 03:15:07;;;;;;;73.45;36.78;;;;;;;13.30;67.84;101298.59;5077958;28;20044;-82
2024/03/22 03:18:01;;;;;;;55.70;30.00;;;;;;;13.28;67.24;101298.09;5081410;28;20044;-83
2024/03/22 03:20:56;;;;;;;63.97;36.00;;;;;;;13.10;67.05;101299.97;5079233;28;20286;-84
2024/03/22 03:23:47;;;;;;;52.83;29.65;;;;;;;13.10;67.10;101301.91;5091322;28;20427;-83
2024/03/22 03:26:42;;;;;;;71.82;36.67;;;;;;;13.08;67.58;101304.94;5083543;28;20405;-81
2024/03/22 03:29:37;;;;;;;73.65;40.67;;;;;;;13.20;67.37;101304.34;5078465;28;20048;-81
2024/03/22 03:32:36;;;;;;;64.03;36.60;;;;;;;13.06;67.34;101309.09;5083038;28;20040;-81
2024/03/22 03:35:29;;;;;;;64.07;37.13;;;;;;;13.06;67.36;101309.09;5079201;28;20036;-84
2024/03/22 03:38:23;;;;;;;56.65;31.45;;;;;;;12.92;67.11;101309.22;5076738;28;20040;-83
2024/03/22 03:41:18;;;;;;;62.97;36.00;;;;;;;12.92;67.49;101308.41;5091342;28;20401;-83
2024/03/22 03:44:07;;;;;;;70.80;38.47;;;;;;;12.85;67.58;101304.19;5091618;28;20048;-83
2024/03/22 03:47:00;;;;;;;70.47;37.70;;;;;;;12.91;67.65;101304.06;5082087;28;20044;-83
2024/03/22 03:49:54;;;;;;;77.22;36.65;;;;;;;12.91;67.62;101304.06;5079418;28;20044;-81
2024/03/22 03:52:49;;;;;;;67.25;37.17;;;;;;;12.83;67.73;101313.84;5091309;28;20036;-83
2024/03/22 03:55:41;;;;;;;62.58;38.85;;;;;;;12.80;68.47;101318.00;5076351;28;20036;-83
2024/03/22 03:58:36;;;;;;;69.15;35.85;;;;;;;12.73;68.74;101320.38;5083145;28;20051;-83
2024/03/22 04:01:35;;;;;;;68.63;36.87;;;;;;;12.80;68.71;101315.25;5076041;28;20504;-81
2024/03/22 04:04:27;;;;;;;66.60;38.35;;;;;;;12.78;69.14;101319.44;5091134;28;20036;-83
2024/03/22 04:07:22;;;;;;;64.95;37.45;;;;;;;12.85;68.52;101314.31;5082763;28;20040;-84
2024/03/22 04:10:17;;;;;;;49.60;28.85;;;;;;;12.86;68.21;101305.81;5091056;28;20044;-83
2024/03/22 04:13:09;;;;;;;69.00;37.85;;;;;;;12.84;68.04;101291.69;5078510;28;20040;-80
2024/03/22 04:16:06;;;;;;;53.00;29.02;;;;;;;12.96;67.56;101287.53;5075946;28;20417;-82
2024/03/22 04:19:01;;;;;;;63.17;34.17;;;;;;;12.92;67.35;101289.31;5079337;28;20032;-83
2024/03/22 04:21:53;;;;;;;62.60;34.47;;;;;;;12.89;67.59;101289.94;5078647;28;20040;-83
2024/03/22 04:24:48;;;;;;;66.57;36.37;;;;;;;12.86;67.32;101294.09;5086888;28;20522;-81
2024/03/22 04:27:40;;;;;;;69.07;35.95;;;;;;;12.86;67.29;101294.09;5098203;28;20572;-83
2024/03/22 04:30:35;;;;;;;65.40;35.40;;;;;;;12.72;67.58;101296.94;5095420;28;20043;-83
2024/03/22 04:33:27;;;;;;;73.22;39.30;;;;;;;12.64;67.60;101295.00;5100062;28;20028;-85
2024/03/22 04:36:22;;;;;;;63.87;35.23;;;;;;;12.56;68.24;101301.19;5096728;28;20598;-83
2024/03/22 04:39:16;;;;;;;49.37;28.50;;;;;;;12.60;68.12;101306.81;5100805;28;20671;-82
2024/03/22 04:42:10;;;;;;;68.63;36.57;;;;;;;12.67;68.22;101304.47;5110889;28;20039;-83
2024/03/22 04:45:05;;;;;;;58.27;34.73;;;;;;;12.65;68.11;101307.50;5110405;28;20039;-83
2024/03/22 04:48:00;;;;;;;73.65;35.60;;;;;;;12.63;67.90;101301.56;5110860;28;20036;-83
2024/03/22 04:50:54;;;;;;;68.90;36.13;;;;;;;12.69;68.49;101305.78;5097024;28;20039;-83
2024/03/22 04:53:47;;;;;;;74.13;36.78;;;;;;;12.58;68.58;101304.44;5103446;28;20035;-83
2024/03/22 04:56:41;;;;;;;62.13;36.22;;;;;;;12.60;68.59;101313.09;5116837;28;20408;-83
2024/03/22 04:59:33;;;;;;;48.70;28.23;;;;;;;12.48;67.92;101312.09;5092267;28;20047;-83
2024/03/22 05:02:28;;;;;;;59.85;34.97;;;;;;;12.47;67.74;101311.28;5114670;28;20040;-83
2024/03/22 05:05:22;;;;;;;47.58;24.02;;;;;;;12.51;67.78;101312.25;5099510;28;20501;-81
2024/03/22 05:08:16;;;;;;;64.47;31.70;;;;;;;12.50;67.96;101315.28;5090168;28;20032;-83
2024/03/22 05:11:16;;;;;;;67.97;33.40;;;;;;;12.51;67.59;101314.97;5094024;28;20040;-82
2024/03/22 05:14:10;;;;;;;62.97;34.23;;;;;;;12.49;67.81;101311.78;5114719;28;20036;-82
2024/03/22 05:17:05;;;;;;;64.03;35.27;;;;;;;12.45;67.29;101310.75;5103233;28;20039;-83
2024/03/22 05:19:57;;;;;;;50.07;28.37;;;;;;;12.48;67.53;101310.16;5104949;28;20035;-82
2024/03/22 05:22:51;;;;;;;55.80;31.85;;;;;;;12.38;67.46;101299.53;5098199;28;20028;-83
2024/03/22 05:25:46;;;;;;;63.80;35.25;;;;;;;12.31;67.88;101296.41;5095772;28;20040;-84
2024/03/22 05:28:39;;;;;;;64.22;35.65;;;;;;;12.29;67.63;101304.13;5064973;28;20040;-81
2024/03/22 05:31:26;;;;;;;70.43;35.63;;;;;;;12.10;68.59;101298.03;5082554;28;20036;-81
2024/03/22 05:34:16;;;;;;;;;;;;;;;12.30;68.56;101302.97;5100301;28;20040;-79
2024/03/22 05:37:08;;;;;;;71.90;37.10;;;;;;;12.30;68.65;101309.25;5101103;28;19915;-84
2024/03/22 05:40:06;;;;;;;67.32;34.38;;;;;;;12.30;68.80;101300.25;5099389;28;20036;-84
2024/03/22 05:43:01;;;;;;;64.57;37.22;;;;;;;12.38;69.01;101316.69;5091943;28;20952;-79
2024/03/22 05:45:55;;;;;;;77.70;39.17;;;;;;;12.58;69.22;101312.63;5102603;28;20496;-80
2024/03/22 05:48:50;;;;;;;73.22;40.10;;;;;;;12.64;69.13;101316.00;5090137;28;20266;-81
2024/03/22 05:51:42;;;;;;;79.20;40.70;;;;;;;12.69;69.50;101327.59;5086902;28;20036;-81
2024/03/22 05:54:37;;;;;;;72.10;38.85;;;;;;;12.69;69.71;101327.59;5098622;28;20031;-82
2024/03/22 05:57:32;;;;;;;56.83;30.83;;;;;;;12.84;69.47;101327.19;5103234;28;20504;-80
2024/03/22 06:00:26;;;;;;;66.65;38.45;;;;;;;12.78;70.05;101342.09;5099860;28;20036;-80
2024/03/22 06:03:21;;;;;;;53.83;26.52;;;;;;;12.90;69.17;101333.28;5091757;28;20048;-82
2024/03/22 06:06:16;;;;;;;50.27;28.83;;;;;;;13.14;68.32;101332.94;5089481;28;20036;-82
2024/03/22 06:09:11;;;;;;;59.63;31.70;;;;;;;13.14;68.10;101332.94;5098020;28;20047;-82
2024/03/22 06:12:03;;;;;;;41.88;25.17;;;;;;;13.27;67.83;101332.00;5098665;28;20274;-82
2024/03/22 06:14:57;;;;;;;56.50;31.13;;;;;;;13.22;68.78;101332.13;5091312;28;20032;-81
2024/03/22 06:17:52;;;;;;;72.35;38.45;;;;;;;13.34;69.97;101337.78;5079700;28;20032;-84
2024/03/22 06:20:48;;;;;;;71.88;39.08;;;;;;;13.45;70.94;101344.56;5100140;28;20044;-84
2024/03/22 06:23:42;;;;;;;82.50;40.90;;;;;;;13.49;71.75;101348.28;5096553;28;20048;-83
2024/03/22 06:26:37;;;;;;;73.73;40.97;;;;;;;13.53;71.28;101343.78;5094511;28;20036;-84
2024/03/22 06:29:26;;;;;;;71.32;38.33;;;;;;;13.59;71.42;101339.75;5100408;28;20493;-82
2024/03/22 06:32:21;;;;;;;73.93;38.08;;;;;;;13.66;71.81;101336.56;5094364;28;20040;-82
2024/03/22 06:35:13;;;;;;;74.47;39.13;;;;;;;13.73;71.77;101339.59;5097640;28;20421;-83
2024/03/22 06:38:05;;;;;;;65.70;37.78;;;;;;;13.80;71.64;101347.34;5099258;28;20262;-82
2024/03/22 06:40:57;;;;;;;71.05;39.83;;;;;;;13.80;71.21;101347.34;5101388;28;20039;-84
2024/03/22 06:43:52;;;;;;;60.38;35.80;;;;;;;13.79;71.15;101343.00;5084254;28;20056;-83
2024/03/22 06:46:46;;;;;;;55.67;33.77;;;;;;;13.87;70.82;101342.97;5098996;28;20040;-85
2024/03/22 06:49:41;;;;;;;46.30;26.02;;;;;;;13.93;70.16;101343.63;5092236;28;20274;-85
2024/03/22 06:52:31;;;;;;;56.33;32.78;;;;;;;13.94;70.34;101339.78;5089055;28;20036;-85
2024/03/22 06:55:23;;;;;;;67.55;34.75;;;;;;;13.95;70.50;101347.66;5096855;28;20032;-83
2024/03/22 06:58:17;;;;;;;47.73;26.63;;;;;;;13.96;70.71;101348.47;5092256;28;20065;-85
2024/03/22 07:01:07;;;;;;;64.13;33.63;;;;;;;14.01;70.52;101345.56;5095534;28;20285;-82
2024/03/22 07:03:59;;;;;;;56.47;30.52;;;;;;;14.11;69.38;101345.25;5087825;28;20285;-84
2024/03/22 07:06:51;;;;;;;51.55;29.13;;;;;;;14.21;69.09;101341.38;5091592;28;20044;-84
2024/03/22 07:09:43;;;;;;;54.45;29.15;;;;;;;14.20;69.13;101348.75;5094506;28;20285;-85
2024/03/22 07:12:35;;;;;;;53.97;28.67;;;;;;;14.27;69.04;101342.81;5088016;28;20043;-85
2024/03/22 07:15:30;;;;;;;52.40;29.20;;;;;;;14.22;69.05;101341.03;5091066;28;20032;-84
2024/03/22 07:18:24;;;;;;;41.72;21.80;;;;;;;14.30;68.84;101345.69;5091691;28;20043;-84
2024/03/22 07:21:16;;;;;;;32.83;19.40;;;;;;;14.37;68.16;101337.84;5096658;28;20040;-82
2024/03/22 07:24:08;;;;;;;46.58;24.98;;;;;;;14.45;67.66;101347.94;5101395;28;20036;-84
2024/03/22 07:27:00;;;;;;;37.10;22.92;;;;;;;14.52;67.52;101345.53;5111680;28;20528;-84
2024/03/22 07:29:54;;;;;;;38.33;21.95;;;;;;;14.55;66.62;101344.88;5095662;28;20044;-84
2024/03/22 07:32:48;;;;;;;37.30;21.83;;;;;;;14.62;65.63;101344.38;5081278;28;20504;-82
2024/03/22 07:35:43;;;;;;;42.33;22.60;;;;;;;14.71;65.42;101341.59;5070774;28;20506;-83
2024/03/22 07:38:38;;;;;;;41.72;20.42;;;;;;;14.80;65.31;101342.34;5071183;28;20405;-84
2024/03/22 07:41:32;;;;;;;32.23;15.73;;;;;;;14.85;65.38;101344.91;5072121;28;20045;-84
2024/03/22 07:44:26;;;;;;;42.83;19.03;;;;;;;14.97;64.71;101339.56;5075206;28;20298;-82
2024/03/22 07:47:18;;;;;;;34.10;18.48;;;;;;;15.04;64.79;101341.75;5086748;28;20044;-80
2024/03/22 07:50:13;;;;;;;35.77;19.10;;;;;;;15.03;64.39;101349.19;5077858;28;20036;-82
2024/03/22 07:53:08;;;;;;;39.85;17.77;;;;;;;15.02;64.06;101355.81;5101929;28;20270;-82
2024/03/22 07:56:00;;;;;;;22.80;12.38;;;;;;;15.03;62.81;101354.69;5060034;28;20040;-82
2024/03/22 07:58:54;;;;;;;32.40;15.35;;;;;;;15.11;63.29;101355.75;5083905;28;20040;-81
2024/03/22 08:01:49;;;;;;;32.35;17.27;;;;;;;15.23;64.42;101364.91;5076470;28;20987;-81
2024/03/22 08:04:44;;;;;;;29.83;18.05;;;;;;;15.30;65.13;101370.63;5077319;28;20044;-82
2024/03/22 08:07:38;;;;;;;33.25;16.63;;;;;;;15.38;64.60;101371.75;5065329;28;20040;-83
2024/03/22 08:10:36;;;;;;;44.78;21.17;;;;;;;15.35;64.71;101370.44;5073930;28;20040;-80
2024/03/22 08:13:31;;;;;;;28.30;18.42;;;;;;;15.49;64.31;101370.19;5091150;28;20036;-80
2024/03/22 08:16:23;;;;;;;30.17;18.00;;;;;;;15.53;63.70;101368.44;5084457;28;20040;-80
2024/03/22 08:19:17;;;;;;;29.75;17.60;;;;;;;15.65;62.77;101375.94;5088566;28;20278;-82
2024/03/22 08:22:09;;;;;;;29.70;15.43;;;;;;;15.67;61.71;101368.19;5096010;28;20405;-84
2024/03/22 08:25:03;;;;;;;25.85;15.35;;;;;;;15.70;60.57;101362.84;5096493;28;20286;-86
2024/03/22 08:27:58;;;;;;;27.30;15.10;;;;;;;15.81;60.20;101357.75;5099832;28;20040;-85
2024/03/22 08:30:50;;;;;;;26.50;15.82;;;;;;;15.90;60.87;101361.22;5089031;28;20270;-87
2024/03/22 08:33:44;;;;;;;23.75;14.80;;;;;;;15.95;60.24;101363.75;5098139;28;20036;-87
2024/03/22 08:36:39;;;;;;;26.17;15.82;;;;;;;16.01;60.21;101362.44;5099290;28;20040;-87
2024/03/22 08:39:34;;;;;;;23.90;14.48;;;;;;;16.09;58.95;101355.28;5090089;28;20036;-86
2024/03/22 08:42:28;;;;;;;27.02;14.30;;;;;;;16.20;57.83;101357.25;5101406;28;20036;-86
2024/03/22 08:45:23;;;;;;;26.60;14.38;;;;;;;16.31;58.07;101356.81;5086037;28;20044;-86
2024/03/22 08:48:12;;;;;;;29.55;14.25;;;;;;;16.31;56.72;101359.56;5089481;28;20036;-87
2024/03/22 08:51:07;;;;;;;33.58;13.82;;;;;;;16.44;56.59;101359.28;5086574;28;20048;-86
2024/03/22 08:54:01;;;;;;;24.83;14.47;;;;;;;16.50;56.11;101362.63;5090084;28;20035;-87
2024/03/22 08:56:56;;;;;;;21.63;12.30;;;;;;;16.54;54.59;101352.56;5089290;28;20062;-85
2024/03/22 08:59:48;;;;;;;21.92;12.68;;;;;;;16.67;55.10;101357.75;5089300;28;20036;-86
2024/03/22 09:02:42;;;;;;;23.77;14.00;;;;;;;16.82;55.72;101364.53;5089300;28;20044;-85
2024/03/22 09:05:37;;;;;;;22.52;14.20;;;;;;;16.88;55.15;101360.44;5098366;28;20036;-86
2024/03/22 09:08:29;;;;;;;32.97;14.00;;;;;;;16.94;55.22;101359.06;5097865;28;20043;-87
2024/03/22 09:11:24;;;;;;;21.10;11.45;;;;;;;17.07;55.32;101360.66;5098024;28;20047;-87
2024/03/22 09:14:18;;;;;;;26.83;12.17;;;;;;;17.29;53.84;101356.66;5102944;28;20040;-87
2024/03/22 09:17:10;;;;;;;21.88;12.50;;;;;;;17.33;52.85;101354.03;5103153;28;20036;-86
2024/03/22 09:20:06;;;;;;;23.60;12.07;;;;;;;17.48;52.54;101347.81;5104050;28;20040;-86
2024/03/22 09:22:59;;;;;;;22.40;12.63;;;;;;;17.67;52.08;101344.50;5104349;28;20035;-87
2024/03/22 09:25:53;;;;;;;19.20;10.57;;;;;;;17.81;51.03;101356.72;5098787;28;20048;-87
2024/03/22 09:28:50;;;;;;;15.70;8.05;;;;;;;17.84;49.53;101344.22;5102299;28;20035;-85
2024/03/22 09:31:44;;;;;;;16.95;9.85;;;;;;;17.99;49.16;101353.69;5103961;28;20051;-86
2024/03/22 09:34:37;;;;;;;18.17;10.88;;;;;;;18.16;49.33;101351.44;5102223;28;20047;-86
2024/03/22 09:37:28;;;;;;;18.70;11.18;;;;;;;18.45;47.62;101347.50;5118269;28;20035;-86
2024/03/22 09:40:23;;;;;;;;;;;;;;;18.63;47.04;101348.00;5109901;28;20044;-86
2024/03/22 09:43:22;;;;;;;17.52;9.20;;;;;;;18.57;46.33;101341.16;5109369;28;19912;-86
2024/03/22 09:46:15;;;;;;;17.27;10.38;;;;;;;18.71;47.03;101338.75;5117673;28;20039;-86
2024/03/22 09:49:06;;;;;;;14.35;8.57;;;;;;;18.82;46.22;101337.09;5121537;28;20047;-87
2024/03/22 09:52:00;;;;;;;18.50;9.23;;;;;;;18.82;46.66;101339.84;5107890;28;20031;-85
2024/03/22 09:54:55;;;;;;;16.45;9.73;;;;;;;19.06;46.05;101327.81;5110678;28;20039;-86
2024/03/22 09:57:50;;;;;;;15.55;9.02;;;;;;;19.29;44.95;101331.53;5113700;28;20039;-87
2024/03/22 10:00:45;;;;;;;17.17;9.50;;;;;;;19.51;44.95;101328.09;5114195;28;20047;-88
2024/03/22 10:03:37;;;;;;;15.20;7.75;;;;;;;19.41;43.88;101314.84;5108357;28;20051;-87
2024/03/22 10:06:31;;;;;;;12.70;7.97;;;;;;;19.55;43.09;101323.50;5107112;28;20054;-87
2024/03/22 10:09:33;;;;;;;17.77;8.50;;;;;;;19.71;43.42;101320.66;5110139;28;20036;-87
2024/03/22 10:12:25;;;;;;;14.98;8.80;;;;;;;19.84;43.30;101316.59;5122214;28;20404;-85
2024/03/22 10:15:17;;;;;;;12.02;7.85;;;;;;;19.97;44.01;101311.72;5112037;28;20410;-88
2024/03/22 10:18:12;;;;;;;6.65;3.92;;;;;;;20.04;38.96;101307.16;5100571;28;20038;-86
2024/03/22 10:21:22;;;;;;;8.63;4.30;;;;;;;20.31;38.17;101305.34;5082492;28;20046;-87
2024/03/22 10:24:17;;;;;;;4.93;2.20;;;;;;;20.40;35.90;101297.59;5085194;28;20067;-87
2024/03/22 10:27:11;;;;;;;6.85;3.78;;;;;;;20.58;37.85;101299.84;5101726;28;20055;-88
2024/03/22 10:30:08;;;;;;;8.05;1.88;;;;;;;20.54;34.68;101290.72;5085649;28;20051;-88
2024/03/22 10:33:03;;;;;;;5.43;2.97;;;;;;;20.62;35.56;101287.69;5099066;28;20043;-88
2024/03/22 10:35:58;;;;;;;4.95;3.13;;;;;;;20.88;36.80;101293.25;5094202;28;20043;-87
2024/03/22 10:38:54;;;;;;;8.07;3.08;;;;;;;20.70;35.57;101283.09;5090109;28;20047;-87
2024/03/22 10:41:49;;;;;;;3.15;2.13;;;;;;;20.99;34.01;101278.81;5087544;28;20047;-88
2024/03/22 10:44:39;;;;;;;;;;;;;;;21.01;34.26;101280.03;5087737;28;20051;-88
2024/03/22 10:47:33;;;;;;;5.20;2.50;;;;;;;21.15;35.39;101287.78;5098445;28;19912;-87
2024/03/22 10:50:26;;;;;;;9.88;3.30;;;;;;;21.09;35.34;101276.22;5086761;28;20043;-88
2024/03/22 10:53:24;;;;;;;6.40;3.13;;;;;;;21.11;35.12;101276.63;5088396;28;20046;-89
2024/03/22 10:56:17;;;;;;;7.55;3.10;;;;;;;21.21;34.74;101276.03;5080418;28;20039;-87
2024/03/22 10:59:09;;;;;;;4.30;3.03;;;;;;;21.18;34.66;101274.00;5082492;28;20527;-89
2024/03/22 11:02:06;;;;;;;4.35;2.42;;;;;;;21.23;34.02;101268.13;5086226;28;20043;-90
2024/03/22 11:04:59;;;;;;;6.43;2.38;;;;;;;21.35;33.44;101258.81;5066970;28;20409;-87
2024/03/22 11:08:00;;;;;;;4.47;2.60;;;;;;;21.42;33.34;101260.88;5092487;28;20508;-86
2024/03/22 11:10:54;;;;;;;14.35;3.05;;;;;;;21.37;33.42;101255.69;5080774;28;20042;-90
2024/03/22 11:13:51;;;;;;;8.18;3.17;;;;;;;21.29;33.21;101250.03;5093336;28;20699;-89
2024/03/22 11:16:43;;;;;;;3.63;2.58;;;;;;;21.51;33.47;101239.25;5088865;28;20039;-88
2024/03/22 11:19:38;;;;;;;8.57;4.65;;;;;;;21.53;34.65;101232.19;5092081;28;20038;-88
2024/03/22 11:22:31;;;;;;;6.65;4.13;;;;;;;21.55;33.55;101231.78;5091610;28;20047;-88
2024/03/22 11:25:26;;;;;;;7.35;3.50;;;;;;;21.67;32.60;101223.25;5091368;28;20042;-88
2024/03/22 11:28:21;;;;;;;9.27;4.72;;;;;;;21.83;33.32;101223.81;5093195;28;20048;-90
2024/03/22 11:31:16;;;;;;;9.70;4.25;;;;;;;21.92;33.81;101223.50;5078268;28;20043;-89
2024/03/22 11:34:10;;;;;;;7.63;4.80;;;;;;;21.97;32.17;101212.94;5082058;28;20067;-88
2024/03/22 11:37:06;;;;;;;5.15;3.60;;;;;;;21.99;30.99;101213.31;5093627;28;20043;-87
2024/03/22 11:40:01;;;;;;;5.13;3.70;;;;;;;22.09;32.08;101209.88;5098209;28;20051;-88
2024/03/22 11:43:05;;;;;;;7.88;3.90;;;;;;;22.17;32.91;101217.06;5096012;28;20043;-89
2024/03/22 11:45:59;;;;;;;8.35;4.47;;;;;;;22.02;32.94;101204.28;5090117;28;20046;-89
2024/03/22 11:48:58;;;;;;;20.02;5.57;;;;;;;22.06;33.31;101201.53;5075670;28;20047;-88
2024/03/22 11:51:51;;;;;;;4.70;2.58;;;;;;;22.13;31.72;101199.63;5080304;28;20047;-88
2024/03/22 11:54:52;;;;;;;6.57;2.90;;;;;;;22.31;30.27;101190.66;5082261;28;20753;-89
2024/03/22 11:57:52;;;;;;;6.47;2.40;;;;;;;22.36;29.87;101190.31;5091438;28;20054;-88
2024/03/22 12:00:46;;;;;;;4.45;2.80;;;;;;;22.35;31.54;101183.97;5068245;28;20035;-87
2024/03/22 12:03:40;;;;;;;21.67;4.10;;;;;;;22.52;32.02;101179.75;5093245;28;20047;-88
2024/03/22 12:06:32;;;;;;;6.03;3.40;;;;;;;22.45;31.15;101176.94;5122797;28;20043;-80
2024/03/22 12:09:24;;;;;;;4.47;3.13;;;;;;;22.52;31.26;101171.44;5094405;28;20043;-89
2024/03/22 12:12:17;;;;;;;6.72;3.13;;;;;;;22.55;30.32;101170.69;5090485;28;20035;-89
2024/03/22 12:15:10;;;;;;;6.13;3.13;;;;;;;22.54;30.38;101169.09;5096066;28;20039;-89
2024/03/22 12:18:02;;;;;;;4.47;3.20;;;;;;;22.46;29.65;101162.69;5098087;28;20305;-87
2024/03/22 12:20:54;;;;;;;6.82;3.40;;;;;;;22.53;29.46;101162.75;5101610;28;20043;-87
2024/03/22 12:23:47;;;;;;;5.03;3.40;;;;;;;22.57;29.66;101159.97;5093030;28;20043;-90
2024/03/22 12:26:42;;;;;;;7.30;2.97;;;;;;;22.65;29.98;101150.53;5097051;28;20038;-90
2024/03/22 12:29:34;;;;;;;7.32;4.00;;;;;;;22.77;30.25;101147.47;5090574;28;20043;-89
2024/03/22 12:32:26;;;;;;;9.38;3.78;;;;;;;22.56;30.05;101144.53;5085180;28;20055;-89
2024/03/22 12:35:18;;;;;;;3.75;2.88;;;;;;;22.54;29.83;101142.16;5090190;28;20535;-90
2024/03/22 12:38:12;;;;;;;4.75;3.08;;;;;;;22.61;29.44;101138.63;5117571;28;20050;-90
2024/03/22 12:41:01;;;;;;;6.20;4.25;;;;;;;22.75;29.48;101135.19;5068714;28;20051;-90
2024/03/22 12:43:56;;;;;;;3.47;2.65;;;;;;;22.60;29.16;101134.28;5084657;28;20047;-90
2024/03/22 12:46:48;;;;;;;6.10;3.25;;;;;;;22.63;28.76;101127.16;5086830;28;20421;-90
2024/03/22 12:49:42;;;;;;;5.25;2.47;;;;;;;22.82;28.77;101118.56;5089852;28;20062;-90
2024/03/22 12:52:35;;;;;;;52.28;5.90;;;;;;;23.03;29.64;101119.47;5109730;28;20055;-90
2024/03/22 12:55:28;;;;;;;4.45;2.90;;;;;;;22.81;29.76;101109.44;5085974;28;20043;-89
2024/03/22 12:58:20;;;;;;;3.85;2.50;;;;;;;22.89;28.87;101110.28;5090178;28;20043;-90
2024/03/22 13:01:12;;;;;;;4.13;2.88;;;;;;;22.78;29.09;101120.53;5095761;28;20047;-89
2024/03/22 13:04:07;;;;;;;;;;;;;;;22.83;29.38;101107.09;5095836;28;20058;-90
2024/03/22 13:07:02;;;;;;;8.07;4.60;;;;;;;22.73;30.54;101099.50;5085648;28;19920;-88
2024/03/22 13:09:56;;;;;;;5.22;3.75;;;;;;;22.80;30.07;101094.00;5091793;28;20059;-86
2024/03/22 13:12:46;;;;;;;6.75;3.78;;;;;;;22.70;30.30;101089.19;5086944;28;20482;-87
2024/03/22 13:15:46;;;;;;;;;;;;;;;22.85;30.84;101078.97;5083309;28;20040;-90